sensor_id;sensor_type;location;lat;lon;timestamp;P1;durP1;ratioP1;P2;durP2;ratioP2
27818;SDS011;15192;44.854;10.046;2023-05-21T00:02:05;53.85;;;31.82;;
27818;SDS011;15192;44.854;10.046;2023-05-21T00:04:35;53.25;;;32.75;;
27818;SDS011;15192;44.854;10.046;2023-05-21T00:07:06;43.63;;;29.10;;
27818;SDS011;15192;44.854;10.046;2023-05-21T00:09:36;41.63;;;26.80;;
27818;SDS011;15192;44.854;10.046;2023-05-21T00:12:05;43.08;;;27.58;;
27818;SDS011;15192;44.854;10.046;2023-05-21T00:14:35;46.02;;;30.40;;
27818;SDS011;15192;44.854;10.046;2023-05-21T00:17:04;42.58;;;28.67;;
27818;SDS011;15192;44.854;10.046;2023-05-21T00:19:33;47.13;;;29.18;;
27818;SDS011;15192;44.854;10.046;2023-05-21T00:22:02;48.08;;;30.43;;
27818;SDS011;15192;44.854;10.046;2023-05-21T00:24:31;49.73;;;30.85;;
27818;SDS011;15192;44.854;10.046;2023-05-21T00:27:00;51.73;;;29.57;;
27818;SDS011;15192;44.854;10.046;2023-05-21T00:29:29;52.58;;;31.17;;
27818;SDS011;15192;44.854;10.046;2023-05-21T00:31:58;57.53;;;31.57;;
27818;SDS011;15192;44.854;10.046;2023-05-21T00:34:27;57.05;;;32.25;;
27818;SDS011;15192;44.854;10.046;2023-05-21T00:36:56;48.98;;;30.15;;
27818;SDS011;15192;44.854;10.046;2023-05-21T00:39:24;47.33;;;27.52;;
27818;SDS011;15192;44.854;10.046;2023-05-21T00:41:53;41.35;;;27.65;;
27818;SDS011;15192;44.854;10.046;2023-05-21T00:44:23;48.98;;;29.27;;
27818;SDS011;15192;44.854;10.046;2023-05-21T00:46:53;54.80;;;30.23;;
27818;SDS011;15192;44.854;10.046;2023-05-21T00:49:35;55.40;;;34.27;;
27818;SDS011;15192;44.854;10.046;2023-05-21T00:52:05;55.45;;;34.20;;
27818;SDS011;15192;44.854;10.046;2023-05-21T00:54:34;60.60;;;36.28;;
27818;SDS011;15192;44.854;10.046;2023-05-21T00:57:03;60.75;;;35.00;;
27818;SDS011;15192;44.854;10.046;2023-05-21T00:59:32;62.62;;;37.23;;
27818;SDS011;15192;44.854;10.046;2023-05-21T01:02:01;60.55;;;36.13;;
27818;SDS011;15192;44.854;10.046;2023-05-21T01:04:32;75.87;;;41.68;;
27818;SDS011;15192;44.854;10.046;2023-05-21T01:07:01;66.05;;;38.98;;
27818;SDS011;15192;44.854;10.046;2023-05-21T01:09:30;68.52;;;38.17;;
27818;SDS011;15192;44.854;10.046;2023-05-21T01:11:59;75.87;;;41.50;;
27818;SDS011;15192;44.854;10.046;2023-05-21T01:14:30;73.50;;;42.48;;
27818;SDS011;15192;44.854;10.046;2023-05-21T01:19:31;74.05;;;40.63;;
27818;SDS011;15192;44.854;10.046;2023-05-21T01:22:05;78.70;;;43.00;;
27818;SDS011;15192;44.854;10.046;2023-05-21T01:24:35;70.83;;;40.28;;
27818;SDS011;15192;44.854;10.046;2023-05-21T01:27:05;72.72;;;39.40;;
27818;SDS011;15192;44.854;10.046;2023-05-21T01:29:35;78.25;;;41.73;;
27818;SDS011;15192;44.854;10.046;2023-05-21T01:32:13;68.10;;;39.53;;
27818;SDS011;15192;44.854;10.046;2023-05-21T01:34:41;66.02;;;37.70;;
27818;SDS011;15192;44.854;10.046;2023-05-21T01:42:24;66.60;;;38.28;;
27818;SDS011;15192;44.854;10.046;2023-05-21T01:47:26;73.12;;;39.35;;
27818;SDS011;15192;44.854;10.046;2023-05-21T01:52:27;72.47;;;40.58;;
27818;SDS011;15192;44.854;10.046;2023-05-21T01:54:56;82.17;;;41.98;;
27818;SDS011;15192;44.854;10.046;2023-05-21T01:57:26;78.92;;;42.33;;
27818;SDS011;15192;44.854;10.046;2023-05-21T01:59:55;67.67;;;39.08;;
27818;SDS011;15192;44.854;10.046;2023-05-21T02:02:24;66.82;;;38.02;;
27818;SDS011;15192;44.854;10.046;2023-05-21T02:04:54;69.58;;;39.80;;
27818;SDS011;15192;44.854;10.046;2023-05-21T02:07:22;64.90;;;37.17;;
27818;SDS011;15192;44.854;10.046;2023-05-21T02:09:51;62.60;;;36.53;;
27818;SDS011;15192;44.854;10.046;2023-05-21T02:12:20;67.62;;;37.33;;
27818;SDS011;15192;44.854;10.046;2023-05-21T02:14:49;66.17;;;38.58;;
27818;SDS011;15192;44.854;10.046;2023-05-21T02:17:18;68.02;;;38.08;;
27818;SDS011;15192;44.854;10.046;2023-05-21T02:19:47;59.50;;;34.60;;
27818;SDS011;15192;44.854;10.046;2023-05-21T02:22:16;59.55;;;34.60;;
27818;SDS011;15192;44.854;10.046;2023-05-21T02:24:45;73.17;;;39.53;;
27818;SDS011;15192;44.854;10.046;2023-05-21T02:27:15;60.10;;;33.63;;
27818;SDS011;15192;44.854;10.046;2023-05-21T02:29:43;66.42;;;35.48;;
27818;SDS011;15192;44.854;10.046;2023-05-21T02:32:12;64.53;;;38.95;;
27818;SDS011;15192;44.854;10.046;2023-05-21T02:34:43;67.27;;;36.23;;
27818;SDS011;15192;44.854;10.046;2023-05-21T02:37:13;67.17;;;36.98;;
27818;SDS011;15192;44.854;10.046;2023-05-21T02:39:43;70.75;;;37.42;;
27818;SDS011;15192;44.854;10.046;2023-05-21T02:42:12;68.92;;;38.98;;
27818;SDS011;15192;44.854;10.046;2023-05-21T02:44:41;69.05;;;39.63;;
27818;SDS011;15192;44.854;10.046;2023-05-21T02:47:10;67.10;;;37.83;;
27818;SDS011;15192;44.854;10.046;2023-05-21T02:49:39;61.23;;;35.83;;
27818;SDS011;15192;44.854;10.046;2023-05-21T02:52:08;70.67;;;39.90;;
27818;SDS011;15192;44.854;10.046;2023-05-21T02:54:37;66.45;;;36.75;;
27818;SDS011;15192;44.854;10.046;2023-05-21T02:57:06;69.37;;;39.98;;
27818;SDS011;15192;44.854;10.046;2023-05-21T02:59:35;72.50;;;38.67;;
27818;SDS011;15192;44.854;10.046;2023-05-21T03:02:04;65.85;;;37.42;;
27818;SDS011;15192;44.854;10.046;2023-05-21T03:04:33;70.42;;;38.92;;
27818;SDS011;15192;44.854;10.046;2023-05-21T03:07:04;64.87;;;36.83;;
27818;SDS011;15192;44.854;10.046;2023-05-21T03:09:35;68.33;;;39.95;;
27818;SDS011;15192;44.854;10.046;2023-05-21T03:12:04;67.50;;;38.38;;
27818;SDS011;15192;44.854;10.046;2023-05-21T03:14:33;63.73;;;39.08;;
27818;SDS011;15192;44.854;10.046;2023-05-21T03:17:02;69.40;;;39.27;;
27818;SDS011;15192;44.854;10.046;2023-05-21T03:19:35;62.27;;;37.45;;
27818;SDS011;15192;44.854;10.046;2023-05-21T03:22:04;66.12;;;39.80;;
27818;SDS011;15192;44.854;10.046;2023-05-21T03:24:35;76.10;;;41.65;;
27818;SDS011;15192;44.854;10.046;2023-05-21T03:27:06;71.92;;;41.75;;
27818;SDS011;15192;44.854;10.046;2023-05-21T03:29:34;76.07;;;42.85;;
27818;SDS011;15192;44.854;10.046;2023-05-21T03:32:06;72.58;;;42.33;;
27818;SDS011;15192;44.854;10.046;2023-05-21T03:34:35;73.37;;;42.55;;
27818;SDS011;15192;44.854;10.046;2023-05-21T03:37:04;74.40;;;43.48;;
27818;SDS011;15192;44.854;10.046;2023-05-21T03:39:33;81.67;;;44.58;;
27818;SDS011;15192;44.854;10.046;2023-05-21T03:42:02;76.12;;;45.48;;
27818;SDS011;15192;44.854;10.046;2023-05-21T03:44:39;73.72;;;42.83;;
27818;SDS011;15192;44.854;10.046;2023-05-21T03:47:09;70.37;;;41.85;;
27818;SDS011;15192;44.854;10.046;2023-05-21T03:49:38;69.10;;;41.98;;
27818;SDS011;15192;44.854;10.046;2023-05-21T03:52:08;78.15;;;43.02;;
27818;SDS011;15192;44.854;10.046;2023-05-21T03:54:37;83.92;;;46.20;;
27818;SDS011;15192;44.854;10.046;2023-05-21T03:57:07;71.95;;;44.18;;
27818;SDS011;15192;44.854;10.046;2023-05-21T03:59:36;80.10;;;45.17;;
27818;SDS011;15192;44.854;10.046;2023-05-21T04:02:05;75.90;;;46.37;;
27818;SDS011;15192;44.854;10.046;2023-05-21T04:04:34;79.32;;;46.00;;
27818;SDS011;15192;44.854;10.046;2023-05-21T04:07:03;87.60;;;47.30;;
27818;SDS011;15192;44.854;10.046;2023-05-21T04:09:32;87.05;;;47.73;;
27818;SDS011;15192;44.854;10.046;2023-05-21T04:12:01;87.30;;;48.10;;
27818;SDS011;15192;44.854;10.046;2023-05-21T04:14:30;81.60;;;47.62;;
27818;SDS011;15192;44.854;10.046;2023-05-21T04:16:59;85.45;;;46.90;;
27818;SDS011;15192;44.854;10.046;2023-05-21T04:19:35;87.82;;;47.85;;
27818;SDS011;15192;44.854;10.046;2023-05-21T04:22:00;82.82;;;48.35;;
27818;SDS011;15192;44.854;10.046;2023-05-21T04:24:29;85.15;;;46.05;;
27818;SDS011;15192;44.854;10.046;2023-05-21T04:27:00;83.55;;;47.08;;
27818;SDS011;15192;44.854;10.046;2023-05-21T04:29:30;88.87;;;46.28;;
27818;SDS011;15192;44.854;10.046;2023-05-21T04:32:00;87.80;;;46.37;;
27818;SDS011;15192;44.854;10.046;2023-05-21T04:34:29;82.12;;;46.68;;
27818;SDS011;15192;44.854;10.046;2023-05-21T04:36:59;87.20;;;45.20;;
27818;SDS011;15192;44.854;10.046;2023-05-21T04:39:29;83.62;;;45.50;;
27818;SDS011;15192;44.854;10.046;2023-05-21T04:41:58;86.50;;;48.20;;
27818;SDS011;15192;44.854;10.046;2023-05-21T04:44:28;85.77;;;47.50;;
27818;SDS011;15192;44.854;10.046;2023-05-21T04:46:57;84.45;;;46.18;;
27818;SDS011;15192;44.854;10.046;2023-05-21T04:49:26;91.47;;;47.10;;
27818;SDS011;15192;44.854;10.046;2023-05-21T04:51:56;87.55;;;47.05;;
27818;SDS011;15192;44.854;10.046;2023-05-21T04:54:25;84.60;;;46.33;;
27818;SDS011;15192;44.854;10.046;2023-05-21T04:56:54;89.40;;;48.33;;
27818;SDS011;15192;44.854;10.046;2023-05-21T04:59:24;87.20;;;45.98;;
27818;SDS011;15192;44.854;10.046;2023-05-21T05:01:52;89.05;;;45.90;;
27818;SDS011;15192;44.854;10.046;2023-05-21T05:04:22;83.22;;;45.55;;
27818;SDS011;15192;44.854;10.046;2023-05-21T05:06:51;74.58;;;41.40;;
27818;SDS011;15192;44.854;10.046;2023-05-21T05:09:20;71.15;;;40.50;;
27818;SDS011;15192;44.854;10.046;2023-05-21T05:11:51;71.20;;;38.67;;
27818;SDS011;15192;44.854;10.046;2023-05-21T05:14:19;62.45;;;35.80;;
27818;SDS011;15192;44.854;10.046;2023-05-21T05:16:50;64.58;;;35.98;;
27818;SDS011;15192;44.854;10.046;2023-05-21T05:19:20;56.53;;;32.67;;
27818;SDS011;15192;44.854;10.046;2023-05-21T05:21:49;63.05;;;35.33;;
27818;SDS011;15192;44.854;10.046;2023-05-21T05:24:19;60.60;;;34.73;;
27818;SDS011;15192;44.854;10.046;2023-05-21T05:26:49;64.47;;;34.33;;
27818;SDS011;15192;44.854;10.046;2023-05-21T05:29:18;55.58;;;34.08;;
27818;SDS011;15192;44.854;10.046;2023-05-21T05:31:48;58.33;;;33.55;;
27818;SDS011;15192;44.854;10.046;2023-05-21T05:34:17;58.15;;;33.05;;
27818;SDS011;15192;44.854;10.046;2023-05-21T05:36:46;61.15;;;34.10;;
27818;SDS011;15192;44.854;10.046;2023-05-21T05:39:15;58.35;;;33.55;;
27818;SDS011;15192;44.854;10.046;2023-05-21T05:41:44;56.75;;;33.70;;
27818;SDS011;15192;44.854;10.046;2023-05-21T05:44:13;52.35;;;32.05;;
27818;SDS011;15192;44.854;10.046;2023-05-21T05:46:43;54.38;;;32.13;;
27818;SDS011;15192;44.854;10.046;2023-05-21T05:49:12;52.33;;;32.45;;
27818;SDS011;15192;44.854;10.046;2023-05-21T05:51:41;57.60;;;33.15;;
27818;SDS011;15192;44.854;10.046;2023-05-21T05:54:10;57.62;;;32.73;;
27818;SDS011;15192;44.854;10.046;2023-05-21T05:56:40;54.75;;;32.45;;
27818;SDS011;15192;44.854;10.046;2023-05-21T05:59:09;62.35;;;34.20;;
27818;SDS011;15192;44.854;10.046;2023-05-21T06:01:38;64.10;;;33.23;;
27818;SDS011;15192;44.854;10.046;2023-05-21T06:04:08;55.48;;;32.13;;
27818;SDS011;15192;44.854;10.046;2023-05-21T06:06:37;54.35;;;30.57;;
27818;SDS011;15192;44.854;10.046;2023-05-21T06:09:06;53.50;;;30.62;;
27818;SDS011;15192;44.854;10.046;2023-05-21T06:11:35;54.23;;;32.23;;
27818;SDS011;15192;44.854;10.046;2023-05-21T06:14:04;51.77;;;30.35;;
27818;SDS011;15192;44.854;10.046;2023-05-21T06:16:33;52.45;;;31.37;;
27818;SDS011;15192;44.854;10.046;2023-05-21T06:19:03;52.53;;;31.80;;
27818;SDS011;15192;44.854;10.046;2023-05-21T06:21:32;56.02;;;32.25;;
27818;SDS011;15192;44.854;10.046;2023-05-21T06:24:01;52.98;;;30.62;;
27818;SDS011;15192;44.854;10.046;2023-05-21T06:26:31;53.73;;;31.65;;
27818;SDS011;15192;44.854;10.046;2023-05-21T06:29:00;48.65;;;30.10;;
27818;SDS011;15192;44.854;10.046;2023-05-21T06:31:30;61.15;;;32.90;;
27818;SDS011;15192;44.854;10.046;2023-05-21T06:33:59;52.70;;;31.50;;
27818;SDS011;15192;44.854;10.046;2023-05-21T06:36:29;53.15;;;30.37;;
27818;SDS011;15192;44.854;10.046;2023-05-21T06:38:58;51.68;;;30.57;;
27818;SDS011;15192;44.854;10.046;2023-05-21T06:41:27;48.40;;;28.65;;
27818;SDS011;15192;44.854;10.046;2023-05-21T06:43:58;50.80;;;30.27;;
27818;SDS011;15192;44.854;10.046;2023-05-21T06:46:28;49.03;;;29.65;;
27818;SDS011;15192;44.854;10.046;2023-05-21T06:48:57;48.85;;;28.87;;
27818;SDS011;15192;44.854;10.046;2023-05-21T06:51:27;51.95;;;30.75;;
27818;SDS011;15192;44.854;10.046;2023-05-21T06:53:56;50.48;;;29.20;;
27818;SDS011;15192;44.854;10.046;2023-05-21T06:56:25;52.62;;;30.57;;
27818;SDS011;15192;44.854;10.046;2023-05-21T06:58:54;49.25;;;30.92;;
27818;SDS011;15192;44.854;10.046;2023-05-21T07:01:23;51.20;;;30.05;;
27818;SDS011;15192;44.854;10.046;2023-05-21T07:03:52;47.67;;;29.92;;
27818;SDS011;15192;44.854;10.046;2023-05-21T07:06:21;53.28;;;29.57;;
27818;SDS011;15192;44.854;10.046;2023-05-21T07:08:50;42.85;;;27.32;;
27818;SDS011;15192;44.854;10.046;2023-05-21T07:11:19;47.98;;;29.27;;
27818;SDS011;15192;44.854;10.046;2023-05-21T07:13:48;53.98;;;30.57;;
27818;SDS011;15192;44.854;10.046;2023-05-21T07:16:17;46.10;;;28.12;;
27818;SDS011;15192;44.854;10.046;2023-05-21T07:18:47;45.67;;;27.73;;
27818;SDS011;15192;44.854;10.046;2023-05-21T07:21:16;48.40;;;30.12;;
27818;SDS011;15192;44.854;10.046;2023-05-21T07:23:47;43.90;;;28.42;;
27818;SDS011;15192;44.854;10.046;2023-05-21T07:26:16;42.85;;;27.02;;
27818;SDS011;15192;44.854;10.046;2023-05-21T07:28:45;46.92;;;29.35;;
27818;SDS011;15192;44.854;10.046;2023-05-21T07:31:14;47.43;;;28.00;;
27818;SDS011;15192;44.854;10.046;2023-05-21T07:33:44;47.85;;;27.82;;
27818;SDS011;15192;44.854;10.046;2023-05-21T07:36:14;47.17;;;27.13;;
27818;SDS011;15192;44.854;10.046;2023-05-21T07:38:43;41.85;;;26.33;;
27818;SDS011;15192;44.854;10.046;2023-05-21T07:41:12;44.40;;;26.57;;
27818;SDS011;15192;44.854;10.046;2023-05-21T07:43:41;41.02;;;24.92;;
27818;SDS011;15192;44.854;10.046;2023-05-21T07:46:10;39.60;;;25.60;;
27818;SDS011;15192;44.854;10.046;2023-05-21T07:48:40;41.15;;;25.65;;
27818;SDS011;15192;44.854;10.046;2023-05-21T07:51:10;42.20;;;24.90;;
27818;SDS011;15192;44.854;10.046;2023-05-21T07:53:39;36.65;;;24.02;;
27818;SDS011;15192;44.854;10.046;2023-05-21T07:56:10;34.80;;;23.20;;
27818;SDS011;15192;44.854;10.046;2023-05-21T07:58:39;33.23;;;22.45;;
27818;SDS011;15192;44.854;10.046;2023-05-21T08:01:10;36.58;;;22.13;;
27818;SDS011;15192;44.854;10.046;2023-05-21T08:03:39;28.40;;;19.32;;
27818;SDS011;15192;44.854;10.046;2023-05-21T08:06:08;29.67;;;20.23;;
27818;SDS011;15192;44.854;10.046;2023-05-21T08:08:37;27.45;;;18.02;;
27818;SDS011;15192;44.854;10.046;2023-05-21T08:11:06;28.80;;;19.23;;
27818;SDS011;15192;44.854;10.046;2023-05-21T08:13:36;31.90;;;19.05;;
27818;SDS011;15192;44.854;10.046;2023-05-21T08:16:06;25.30;;;16.65;;
27818;SDS011;15192;44.854;10.046;2023-05-21T08:18:35;29.65;;;18.90;;
27818;SDS011;15192;44.854;10.046;2023-05-21T08:21:04;30.62;;;18.12;;
27818;SDS011;15192;44.854;10.046;2023-05-21T08:23:33;29.02;;;18.90;;
27818;SDS011;15192;44.854;10.046;2023-05-21T08:26:02;29.02;;;19.17;;
27818;SDS011;15192;44.854;10.046;2023-05-21T08:28:31;28.47;;;17.15;;
27818;SDS011;15192;44.854;10.046;2023-05-21T08:31:01;24.40;;;16.82;;
27818;SDS011;15192;44.854;10.046;2023-05-21T08:33:33;28.07;;;18.55;;
27818;SDS011;15192;44.854;10.046;2023-05-21T08:36:06;26.97;;;18.07;;
27818;SDS011;15192;44.854;10.046;2023-05-21T08:38:36;27.52;;;17.80;;
27818;SDS011;15192;44.854;10.046;2023-05-21T08:41:13;23.40;;;16.45;;
27818;SDS011;15192;44.854;10.046;2023-05-21T08:43:44;29.30;;;17.25;;
27818;SDS011;15192;44.854;10.046;2023-05-21T08:46:14;23.83;;;15.40;;
27818;SDS011;15192;44.854;10.046;2023-05-21T08:48:45;21.63;;;15.30;;
27818;SDS011;15192;44.854;10.046;2023-05-21T08:51:14;20.90;;;14.80;;
27818;SDS011;15192;44.854;10.046;2023-05-21T08:53:45;22.30;;;14.00;;
27818;SDS011;15192;44.854;10.046;2023-05-21T08:56:17;26.05;;;14.13;;
27818;SDS011;15192;44.854;10.046;2023-05-21T08:58:48;21.33;;;15.03;;
27818;SDS011;15192;44.854;10.046;2023-05-21T09:01:20;23.30;;;15.70;;
27818;SDS011;15192;44.854;10.046;2023-05-21T09:03:51;23.62;;;14.47;;
27818;SDS011;15192;44.854;10.046;2023-05-21T09:06:22;18.55;;;13.20;;
27818;SDS011;15192;44.854;10.046;2023-05-21T09:08:54;21.23;;;14.33;;
27818;SDS011;15192;44.854;10.046;2023-05-21T09:11:31;18.98;;;14.03;;
27818;SDS011;15192;44.854;10.046;2023-05-21T09:14:01;17.57;;;13.25;;
27818;SDS011;15192;44.854;10.046;2023-05-21T09:16:38;19.60;;;13.13;;
27818;SDS011;15192;44.854;10.046;2023-05-21T09:19:08;20.62;;;13.38;;
27818;SDS011;15192;44.854;10.046;2023-05-21T09:21:37;19.50;;;12.35;;
27818;SDS011;15192;44.854;10.046;2023-05-21T09:24:08;16.87;;;12.23;;
27818;SDS011;15192;44.854;10.046;2023-05-21T09:26:39;15.90;;;11.33;;
27818;SDS011;15192;44.854;10.046;2023-05-21T09:29:12;14.83;;;11.68;;
27818;SDS011;15192;44.854;10.046;2023-05-21T09:31:43;18.32;;;11.15;;
27818;SDS011;15192;44.854;10.046;2023-05-21T09:34:13;16.27;;;11.55;;
27818;SDS011;15192;44.854;10.046;2023-05-21T09:36:43;12.73;;;9.80;;
27818;SDS011;15192;44.854;10.046;2023-05-21T09:39:12;15.05;;;11.88;;
27818;SDS011;15192;44.854;10.046;2023-05-21T09:41:44;15.43;;;11.08;;
27818;SDS011;15192;44.854;10.046;2023-05-21T09:44:13;15.85;;;11.15;;
27818;SDS011;15192;44.854;10.046;2023-05-21T09:46:42;12.90;;;10.35;;
27818;SDS011;15192;44.854;10.046;2023-05-21T09:49:24;17.35;;;11.43;;
27818;SDS011;15192;44.854;10.046;2023-05-21T09:51:54;16.20;;;11.08;;
27818;SDS011;15192;44.854;10.046;2023-05-21T09:54:30;13.80;;;10.85;;
27818;SDS011;15192;44.854;10.046;2023-05-21T09:57:00;16.10;;;10.98;;
27818;SDS011;15192;44.854;10.046;2023-05-21T09:59:38;13.40;;;10.13;;
27818;SDS011;15192;44.854;10.046;2023-05-21T10:02:19;14.43;;;10.65;;
27818;SDS011;15192;44.854;10.046;2023-05-21T10:04:49;16.42;;;11.08;;
27818;SDS011;15192;44.854;10.046;2023-05-21T10:07:22;13.50;;;9.68;;
27818;SDS011;15192;44.854;10.046;2023-05-21T10:09:53;13.03;;;10.13;;
27818;SDS011;15192;44.854;10.046;2023-05-21T10:12:23;16.67;;;11.27;;
27818;SDS011;15192;44.854;10.046;2023-05-21T10:15:04;17.62;;;10.78;;
27818;SDS011;15192;44.854;10.046;2023-05-21T10:17:29;16.67;;;9.58;;
27818;SDS011;15192;44.854;10.046;2023-05-21T10:19:58;17.15;;;11.08;;
27818;SDS011;15192;44.854;10.046;2023-05-21T10:22:27;16.42;;;11.00;;
27818;SDS011;15192;44.854;10.046;2023-05-21T10:24:57;16.02;;;10.98;;
27818;SDS011;15192;44.854;10.046;2023-05-21T10:27:29;16.23;;;10.63;;
27818;SDS011;15192;44.854;10.046;2023-05-21T10:29:59;14.28;;;10.10;;
27818;SDS011;15192;44.854;10.046;2023-05-21T10:32:28;15.35;;;10.63;;
27818;SDS011;15192;44.854;10.046;2023-05-21T10:34:58;13.58;;;10.28;;
27818;SDS011;15192;44.854;10.046;2023-05-21T10:37:29;18.87;;;11.57;;
27818;SDS011;15192;44.854;10.046;2023-05-21T10:39:58;14.78;;;10.43;;
27818;SDS011;15192;44.854;10.046;2023-05-21T10:46:09;13.98;;;10.75;;
27818;SDS011;15192;44.854;10.046;2023-05-21T10:56:40;23.40;;;12.10;;
27818;SDS011;15192;44.854;10.046;2023-05-21T10:59:15;19.37;;;11.57;;
27818;SDS011;15192;44.854;10.046;2023-05-21T11:01:51;17.00;;;11.63;;
27818;SDS011;15192;44.854;10.046;2023-05-21T11:04:21;12.93;;;10.45;;
27818;SDS011;15192;44.854;10.046;2023-05-21T11:06:52;17.47;;;12.23;;
27818;SDS011;15192;44.854;10.046;2023-05-21T11:09:21;18.35;;;11.30;;
27818;SDS011;15192;44.854;10.046;2023-05-21T11:11:50;14.85;;;11.45;;
27818;SDS011;15192;44.854;10.046;2023-05-21T11:14:33;13.32;;;10.50;;
27818;SDS011;15192;44.854;10.046;2023-05-21T11:17:10;21.17;;;12.82;;
27818;SDS011;15192;44.854;10.046;2023-05-21T11:22:20;21.40;;;13.32;;
27818;SDS011;15192;44.854;10.046;2023-05-21T11:24:51;14.75;;;12.10;;
27818;SDS011;15192;44.854;10.046;2023-05-21T11:27:32;15.00;;;12.28;;
27818;SDS011;15192;44.854;10.046;2023-05-21T11:30:05;19.52;;;13.22;;
27818;SDS011;15192;44.854;10.046;2023-05-21T11:32:39;18.23;;;13.43;;
27818;SDS011;15192;44.854;10.046;2023-05-21T11:35:27;17.60;;;12.82;;
27818;SDS011;15192;44.854;10.046;2023-05-21T11:37:56;18.80;;;12.82;;
27818;SDS011;15192;44.854;10.046;2023-05-21T11:40:25;17.85;;;12.20;;
27818;SDS011;15192;44.854;10.046;2023-05-21T11:42:56;20.33;;;13.80;;
27818;SDS011;15192;44.854;10.046;2023-05-21T11:45:31;18.35;;;14.15;;
27818;SDS011;15192;44.854;10.046;2023-05-21T11:47:57;21.02;;;12.93;;
27818;SDS011;15192;44.854;10.046;2023-05-21T11:50:26;17.40;;;13.58;;
27818;SDS011;15192;44.854;10.046;2023-05-21T11:52:58;17.92;;;13.60;;
27818;SDS011;15192;44.854;10.046;2023-05-21T11:55:27;17.37;;;12.60;;
27818;SDS011;15192;44.854;10.046;2023-05-21T11:57:56;18.95;;;13.70;;
27818;SDS011;15192;44.854;10.046;2023-05-21T12:00:26;19.92;;;15.43;;
27818;SDS011;15192;44.854;10.046;2023-05-21T12:02:54;19.25;;;12.37;;
27818;SDS011;15192;44.854;10.046;2023-05-21T12:05:24;19.30;;;13.80;;
27818;SDS011;15192;44.854;10.046;2023-05-21T12:07:53;20.40;;;14.60;;
27818;SDS011;15192;44.854;10.046;2023-05-21T12:10:22;24.35;;;14.45;;
27818;SDS011;15192;44.854;10.046;2023-05-21T12:12:51;25.75;;;13.78;;
27818;SDS011;15192;44.854;10.046;2023-05-21T12:15:20;20.35;;;13.05;;
27818;SDS011;15192;44.854;10.046;2023-05-21T12:17:50;24.15;;;14.70;;
27818;SDS011;15192;44.854;10.046;2023-05-21T12:20:19;22.42;;;14.60;;
27818;SDS011;15192;44.854;10.046;2023-05-21T12:22:49;20.95;;;13.53;;
27818;SDS011;15192;44.854;10.046;2023-05-21T12:25:24;16.12;;;13.60;;
27818;SDS011;15192;44.854;10.046;2023-05-21T12:27:48;15.78;;;13.20;;
27818;SDS011;15192;44.854;10.046;2023-05-21T12:30:24;24.05;;;14.70;;
27818;SDS011;15192;44.854;10.046;2023-05-21T12:32:56;18.95;;;13.80;;
27818;SDS011;15192;44.854;10.046;2023-05-21T12:35:25;17.30;;;13.15;;
27818;SDS011;15192;44.854;10.046;2023-05-21T12:37:54;19.70;;;13.68;;
27818;SDS011;15192;44.854;10.046;2023-05-21T12:40:32;17.75;;;14.15;;
27818;SDS011;15192;44.854;10.046;2023-05-21T12:42:55;18.70;;;13.55;;
27818;SDS011;15192;44.854;10.046;2023-05-21T12:45:24;19.55;;;13.90;;
27818;SDS011;15192;44.854;10.046;2023-05-21T12:47:53;19.82;;;15.18;;
27818;SDS011;15192;44.854;10.046;2023-05-21T12:50:22;18.07;;;12.58;;
27818;SDS011;15192;44.854;10.046;2023-05-21T12:52:53;15.75;;;13.70;;
27818;SDS011;15192;44.854;10.046;2023-05-21T12:55:23;18.05;;;13.90;;
27818;SDS011;15192;44.854;10.046;2023-05-21T12:58:02;19.95;;;14.30;;
27818;SDS011;15192;44.854;10.046;2023-05-21T13:00:30;19.77;;;14.58;;
27818;SDS011;15192;44.854;10.046;2023-05-21T13:03:01;17.60;;;13.72;;
27818;SDS011;15192;44.854;10.046;2023-05-21T13:05:32;16.02;;;10.65;;
27818;SDS011;15192;44.854;10.046;2023-05-21T13:08:01;16.57;;;13.48;;
27818;SDS011;15192;44.854;10.046;2023-05-21T13:10:30;19.73;;;13.72;;
27818;SDS011;15192;44.854;10.046;2023-05-21T13:12:59;17.12;;;14.07;;
27818;SDS011;15192;44.854;10.046;2023-05-21T13:15:28;20.48;;;15.28;;
27818;SDS011;15192;44.854;10.046;2023-05-21T13:17:57;19.00;;;14.70;;
27818;SDS011;15192;44.854;10.046;2023-05-21T13:20:27;24.00;;;16.12;;
27818;SDS011;15192;44.854;10.046;2023-05-21T13:22:56;30.05;;;15.10;;
27818;SDS011;15192;44.854;10.046;2023-05-21T13:25:25;19.50;;;14.95;;
27818;SDS011;15192;44.854;10.046;2023-05-21T13:28:03;21.70;;;15.08;;
27818;SDS011;15192;44.854;10.046;2023-05-21T13:30:30;26.37;;;15.70;;
27818;SDS011;15192;44.854;10.046;2023-05-21T13:32:59;22.17;;;15.43;;
27818;SDS011;15192;44.854;10.046;2023-05-21T13:35:29;20.30;;;14.83;;
27818;SDS011;15192;44.854;10.046;2023-05-21T13:37:58;22.75;;;17.10;;
27818;SDS011;15192;44.854;10.046;2023-05-21T13:40:27;20.05;;;15.40;;
27818;SDS011;15192;44.854;10.046;2023-05-21T13:42:56;22.37;;;15.13;;
27818;SDS011;15192;44.854;10.046;2023-05-21T13:45:25;16.75;;;14.07;;
27818;SDS011;15192;44.854;10.046;2023-05-21T13:47:55;18.12;;;14.75;;
27818;SDS011;15192;44.854;10.046;2023-05-21T13:50:24;18.32;;;13.50;;
27818;SDS011;15192;44.854;10.046;2023-05-21T13:52:53;23.77;;;15.43;;
27818;SDS011;15192;44.854;10.046;2023-05-21T13:55:21;18.48;;;14.25;;
27818;SDS011;15192;44.854;10.046;2023-05-21T13:57:50;20.10;;;15.23;;
27818;SDS011;15192;44.854;10.046;2023-05-21T14:00:19;20.00;;;14.50;;
27818;SDS011;15192;44.854;10.046;2023-05-21T14:02:48;23.87;;;14.87;;
27818;SDS011;15192;44.854;10.046;2023-05-21T14:05:17;19.05;;;13.80;;
27818;SDS011;15192;44.854;10.046;2023-05-21T14:07:46;17.82;;;13.62;;
27818;SDS011;15192;44.854;10.046;2023-05-21T14:10:15;19.42;;;14.25;;
27818;SDS011;15192;44.854;10.046;2023-05-21T14:12:44;18.90;;;14.53;;
27818;SDS011;15192;44.854;10.046;2023-05-21T14:15:13;23.98;;;15.78;;
27818;SDS011;15192;44.854;10.046;2023-05-21T14:17:43;21.80;;;15.00;;
27818;SDS011;15192;44.854;10.046;2023-05-21T14:20:12;20.62;;;14.15;;
27818;SDS011;15192;44.854;10.046;2023-05-21T14:22:41;16.40;;;13.48;;
27818;SDS011;15192;44.854;10.046;2023-05-21T14:25:10;22.42;;;15.08;;
27818;SDS011;15192;44.854;10.046;2023-05-21T14:27:38;17.65;;;13.78;;
27818;SDS011;15192;44.854;10.046;2023-05-21T14:30:08;18.77;;;15.13;;
27818;SDS011;15192;44.854;10.046;2023-05-21T14:32:37;18.67;;;14.38;;
27818;SDS011;15192;44.854;10.046;2023-05-21T14:35:06;16.12;;;13.72;;
27818;SDS011;15192;44.854;10.046;2023-05-21T14:37:35;20.15;;;13.50;;
27818;SDS011;15192;44.854;10.046;2023-05-21T14:40:04;23.57;;;15.83;;
27818;SDS011;15192;44.854;10.046;2023-05-21T14:42:34;20.25;;;14.55;;
27818;SDS011;15192;44.854;10.046;2023-05-21T14:45:03;18.87;;;14.10;;
27818;SDS011;15192;44.854;10.046;2023-05-21T14:47:32;19.70;;;16.15;;
27818;SDS011;15192;44.854;10.046;2023-05-21T14:50:01;17.80;;;14.33;;
27818;SDS011;15192;44.854;10.046;2023-05-21T14:52:30;19.27;;;15.85;;